Time;durP1;ratioP1;P1;durP2;ratioP2;P2;SDS_P1;SDS_P2;PMS_P1;PMS_P2;Temp;Humidity;BMP_temperature;BMP_pressure;BME280_temperature;BME280_humidity;BME280_pressure;Samples;Min_cycle;Max_cycle;Signal;HPM_P1;HPM_P2
2021/05/02 00:01:39;;;;;;;4.47;1.80;;;5.70;99.90;;;;;;5209401;28;20687;-76
2021/05/02 00:04:10;;;;;;;3.33;1.87;;;5.70;99.90;;;;;;5209365;28;20257;-71
2021/05/02 00:06:42;;;;;;;3.80;1.80;;;5.70;99.90;;;;;;5208881;28;20216;-73
2021/05/02 00:09:13;;;;;;;2.23;1.60;;;5.70;99.90;;;;;;5209001;28;20205;-73
2021/05/02 00:11:45;;;;;;;5.03;2.20;;;5.60;99.90;;;;;;5209150;28;20228;-74
2021/05/02 00:14:16;;;;;;;4.87;1.93;;;5.70;99.90;;;;;;5208945;28;20209;-72
2021/05/02 00:16:50;;;;;;;3.47;1.83;;;5.60;99.90;;;;;;5208935;28;20237;-75
2021/05/02 00:19:22;;;;;;;4.37;2.00;;;5.60;99.90;;;;;;5208669;28;20618;-78
2021/05/02 00:21:54;;;;;;;3.33;1.77;;;5.70;99.90;;;;;;5209500;28;20211;-74
2021/05/02 00:24:26;;;;;;;4.20;1.90;;;5.60;99.90;;;;;;5208577;28;20731;-77
2021/05/02 00:26:58;;;;;;;2.60;1.90;;;5.70;99.90;;;;;;5208630;28;20206;-76
2021/05/02 00:29:31;;;;;;;6.53;1.80;;;5.60;99.90;;;;;;5208542;28;20225;-72
2021/05/02 00:32:03;;;;;;;3.13;2.00;;;5.60;99.90;;;;;;5208778;28;20562;-71
2021/05/02 00:34:35;;;;;;;2.70;2.00;;;5.60;99.90;;;;;;5208692;28;20680;-72
2021/05/02 00:37:07;;;;;;;2.20;1.53;;;5.60;99.90;;;;;;5207416;28;20202;-70
2021/05/02 00:39:41;;;;;;;3.83;1.70;;;5.60;99.90;;;;;;5208161;28;20314;-69
2021/05/02 00:42:31;;;;;;;3.30;1.83;;;5.50;99.90;;;;;;5208472;28;20202;-68
2021/05/02 00:45:07;;;;;;;5.27;2.00;;;5.50;99.90;;;;;;5223493;28;20288;-68
2021/05/02 00:47:45;;;;;;;4.30;2.00;;;5.50;99.90;;;;;;5208458;28;20649;-67
2021/05/02 00:50:21;;;;;;;4.73;2.13;;;5.50;99.90;;;;;;5208085;28;20239;-67
2021/05/02 00:53:02;;;;;;;3.47;2.07;;;5.60;99.90;;;;;;5208211;28;20202;-67
2021/05/02 00:55:47;;;;;;;2.47;1.80;;;5.60;99.90;;;;;;5208181;28;20673;-67
2021/05/02 00:58:39;;;;;;;6.33;2.40;;;5.60;99.90;;;;;;5208903;28;20202;-68
2021/05/02 01:01:18;;;;;;;8.77;2.10;;;5.60;99.90;;;;;;5208177;28;20669;-68
2021/05/02 01:03:51;;;;;;;4.63;2.10;;;5.70;99.90;;;;;;5208043;28;20226;-67
2021/05/02 01:06:24;;;;;;;6.37;2.23;;;5.70;99.90;;;;;;5207920;28;20202;-67
2021/05/02 01:08:59;;;;;;;3.83;2.10;;;5.70;99.90;;;;;;5207909;28;20213;-71
2021/05/02 01:11:33;;;;;;;2.97;2.10;;;5.70;99.90;;;;;;5207877;28;20201;-68
2021/05/02 01:14:05;;;;;;;4.43;2.20;;;5.70;99.90;;;;;;5208041;28;20203;-70
2021/05/02 01:16:39;;;;;;;3.37;2.20;;;5.70;99.90;;;;;;5207894;28;20206;-71
2021/05/02 01:19:12;;;;;;;2.87;2.07;;;5.80;99.90;;;;;;5207900;28;20209;-74
2021/05/02 01:21:48;;;;;;;2.43;1.73;;;5.70;99.90;;;;;;5207593;28;20206;-71
2021/05/02 01:24:20;;;;;;;3.57;2.10;;;5.70;99.90;;;;;;5207687;28;20588;-68
2021/05/02 01:26:51;;;;;;;3.83;2.20;;;5.70;99.90;;;;;;5207561;28;20202;-73
2021/05/02 01:29:24;;;;;;;4.20;1.90;;;5.70;99.90;;;;;;5207865;28;20571;-67
2021/05/02 01:31:56;;;;;;;9.00;2.27;;;5.70;99.90;;;;;;5207575;28;20224;-68
2021/05/02 01:34:28;;;;;;;4.50;2.13;;;5.70;99.90;;;;;;5207406;28;20212;-67
2021/05/02 01:37:00;;;;;;;2.93;2.10;;;5.60;99.90;;;;;;5207181;28;20205;-68
2021/05/02 01:39:31;;;;;;;3.90;1.90;;;5.60;99.90;;;;;;5207076;28;20234;-71
2021/05/02 01:42:03;;;;;;;4.93;2.30;;;5.60;99.90;;;;;;5207731;28;20209;-72
2021/05/02 01:44:35;;;;;;;6.23;2.27;;;5.50;99.90;;;;;;5207201;28;20240;-68
2021/05/02 01:47:27;;;;;;;3.80;2.13;;;5.50;99.90;;;;;;5207068;28;20206;-68
2021/05/02 01:50:05;;;;;;;3.30;1.80;;;5.50;99.90;;;;;;5206711;28;20217;-67
2021/05/02 01:52:44;;;;;;;3.10;2.00;;;5.40;99.90;;;;;;5207151;28;20212;-67
2021/05/02 01:55:16;;;;;;;4.50;2.13;;;5.40;99.90;;;;;;5207399;28;20216;-70
2021/05/02 01:57:49;;;;;;;3.67;2.50;;;5.30;99.90;;;;;;5207153;28;20218;-68
2021/05/02 02:00:21;;;;;;;4.60;2.70;;;5.30;99.90;;;;;;5206870;28;20209;-70
2021/05/02 02:02:54;;;;;;;3.77;2.47;;;5.30;99.90;;;;;;5222400;28;20210;-72
2021/05/02 02:05:26;;;;;;;5.33;2.50;;;5.30;99.90;;;;;;5206904;28;20229;-68
2021/05/02 02:07:57;;;;;;;3.90;2.80;;;5.30;99.90;;;;;;5207051;28;20202;-67
2021/05/02 02:10:30;;;;;;;5.07;2.77;;;5.20;99.90;;;;;;5206743;28;20213;-71
2021/05/02 02:13:02;;;;;;;4.40;2.50;;;5.30;99.90;;;;;;5206858;28;20210;-74
2021/05/02 02:15:34;;;;;;;5.60;2.30;;;5.20;99.90;;;;;;5207023;28;20583;-68
2021/05/02 02:18:07;;;;;;;3.63;2.63;;;5.20;99.90;;;;;;5206707;28;20212;-68
2021/05/02 02:20:42;;;;;;;5.10;2.33;;;5.20;99.90;;;;;;5206636;28;20245;-68
2021/05/02 02:23:25;;;;;;;3.60;2.50;;;5.20;99.90;;;;;;5206923;28;20225;-70
2021/05/02 02:26:03;;;;;;;4.07;2.40;;;5.20;99.90;;;;;;5206912;28;20289;-69
2021/05/02 02:28:37;;;;;;;5.80;2.80;;;5.20;99.90;;;;;;5206728;28;20221;-69
2021/05/02 02:31:11;;;;;;;7.17;2.90;;;5.20;99.90;;;;;;5221818;28;20220;-67
2021/05/02 02:33:43;;;;;;;4.10;2.50;;;5.20;99.90;;;;;;5206606;28;20205;-69
2021/05/02 02:36:15;;;;;;;5.60;2.30;;;5.20;99.90;;;;;;5206821;28;20202;-76
2021/05/02 02:38:46;;;;;;;4.37;3.07;;;5.20;99.90;;;;;;5205622;28;20217;-68
2021/05/02 02:41:18;;;;;;;6.07;2.90;;;5.20;99.90;;;;;;5206704;28;20206;-72
2021/05/02 02:43:57;;;;;;;4.57;2.93;;;5.20;99.90;;;;;;5206581;28;20572;-69
2021/05/02 02:46:30;;;;;;;6.77;2.60;;;5.20;99.90;;;;;;5206530;28;20221;-69
2021/05/02 02:49:05;;;;;;;7.60;3.07;;;5.30;99.90;;;;;;5207048;28;20213;-70
2021/05/02 02:51:38;;;;;;;7.07;3.47;;;5.30;99.90;;;;;;5206472;28;20213;-69
2021/05/02 02:54:11;;;;;;;5.57;3.07;;;5.30;99.90;;;;;;5206447;28;20202;-69
2021/05/02 02:56:46;;;;;;;8.23;3.30;;;5.30;99.90;;;;;;5206470;28;20217;-70
2021/05/02 02:59:27;;;;;;;8.90;2.93;;;5.30;99.90;;;;;;5206521;28;20242;-66
2021/05/02 03:02:01;;;;;;;4.77;3.17;;;5.30;99.90;;;;;;5209749;28;20210;-68
2021/05/02 03:04:34;;;;;;;3.90;3.10;;;5.30;99.90;;;;;;5209931;28;20229;-67
2021/05/02 03:07:09;;;;;;;4.63;2.93;;;5.30;99.90;;;;;;5210323;28;20198;-73
2021/05/02 03:09:44;;;;;;;7.37;3.73;;;5.30;99.90;;;;;;5210511;28;20252;-76
2021/05/02 03:12:22;;;;;;;7.67;3.53;;;5.30;99.90;;;;;;5210029;28;20207;-72
2021/05/02 03:14:55;;;;;;;5.43;3.87;;;5.30;99.90;;;;;;5210039;28;20210;-72
2021/05/02 03:17:31;;;;;;;8.07;3.30;;;5.30;99.90;;;;;;5209998;28;20222;-73
2021/05/02 03:20:06;;;;;;;7.53;3.90;;;5.30;99.90;;;;;;5209696;28;20201;-72
2021/05/02 03:22:55;;;;;;;6.30;4.00;;;5.30;99.90;;;;;;5210005;28;20212;-72
2021/05/02 03:25:29;;;;;;;5.23;3.50;;;5.30;99.90;;;;;;5209617;28;20226;-70
2021/05/02 03:28:08;;;;;;;6.87;4.23;;;5.30;99.90;;;;;;5209981;28;20209;-71
2021/05/02 03:30:44;;;;;;;7.97;3.93;;;5.30;99.90;;;;;;5209729;28;20213;-69
2021/05/02 03:33:16;;;;;;;7.23;4.03;;;5.40;99.90;;;;;;5210330;28;20202;-71
2021/05/02 03:35:50;;;;;;;9.47;3.93;;;5.40;99.90;;;;;;5209759;28;20544;-73
2021/05/02 03:38:33;;;;;;;7.33;4.60;;;5.40;99.90;;;;;;5209641;28;20225;-68
2021/05/02 03:41:05;;;;;;;7.37;4.23;;;5.40;99.90;;;;;;5209538;28;20237;-71
2021/05/02 03:43:39;;;;;;;6.27;4.20;;;5.50;99.90;;;;;;5209337;28;20689;-69
2021/05/02 03:46:23;;;;;;;7.30;4.50;;;5.50;99.90;;;;;;5209401;28;20201;-72
2021/05/02 03:49:07;;;;;;;10.47;4.63;;;5.60;99.90;;;;;;5209945;28;20202;-71
2021/05/02 03:51:40;;;;;;;9.60;4.93;;;5.60;99.90;;;;;;5209081;28;20206;-72
2021/05/02 03:54:11;;;;;;;6.93;4.50;;;5.60;99.90;;;;;;5209619;28;20599;-69
2021/05/02 03:56:44;;;;;;;9.07;4.40;;;5.70;99.90;;;;;;5209818;28;20202;-74
2021/05/02 03:59:18;;;;;;;9.23;4.73;;;5.70;99.90;;;;;;5207898;28;20280;-74
2021/05/02 04:01:58;;;;;;;11.00;4.70;;;5.70;99.90;;;;;;5209260;28;20206;-68
2021/05/02 04:04:36;;;;;;;8.50;4.90;;;5.80;99.90;;;;;;5209051;28;20234;-74
2021/05/02 04:07:12;;;;;;;9.13;6.30;;;5.90;99.90;;;;;;5208882;28;20208;-71
2021/05/02 04:09:49;;;;;;;11.03;5.80;;;5.90;99.90;;;;;;5209052;28;20248;-69
2021/05/02 04:12:21;;;;;;;13.83;6.50;;;6.00;99.90;;;;;;5208490;28;20206;-67
2021/05/02 04:14:52;;;;;;;12.03;6.10;;;6.00;99.90;;;;;;5208649;28;20199;-68
2021/05/02 04:17:23;;;;;;;14.47;7.80;;;6.10;99.90;;;;;;5208803;28;20209;-69
2021/05/02 04:19:55;;;;;;;14.53;7.67;;;6.10;99.90;;;;;;5208790;28;20256;-68
2021/05/02 04:22:30;;;;;;;14.03;8.13;;;6.10;99.90;;;;;;5208848;28;20658;-69
2021/05/02 04:25:01;;;;;;;14.80;8.33;;;6.20;99.90;;;;;;5208800;28;20241;-71
2021/05/02 04:27:33;;;;;;;12.37;7.57;;;6.20;99.90;;;;;;5208491;28;20202;-69
2021/05/02 04:30:06;;;;;;;11.60;7.00;;;6.30;99.90;;;;;;5208546;28;20217;-69
2021/05/02 04:32:37;;;;;;;12.60;7.00;;;6.30;99.90;;;;;;5208768;28;20213;-68
2021/05/02 04:35:09;;;;;;;13.93;7.13;;;6.30;99.90;;;;;;5208578;28;20229;-71
2021/05/02 04:37:41;;;;;;;12.13;6.27;;;6.40;99.90;;;;;;5208684;28;20225;-69
2021/05/02 04:40:12;;;;;;;11.17;6.80;;;6.40;99.90;;;;;;5208323;28;20238;-70
2021/05/02 04:42:43;;;;;;;10.90;6.10;;;6.40;99.90;;;;;;5208540;28;20586;-71
2021/05/02 04:45:15;;;;;;;11.40;6.60;;;6.40;99.90;;;;;;5208282;28;20241;-70
2021/05/02 04:47:46;;;;;;;10.20;6.53;;;6.40;99.90;;;;;;5208179;28;20660;-68
2021/05/02 04:50:18;;;;;;;13.47;6.40;;;6.40;99.90;;;;;;5208499;28;20210;-71
2021/05/02 04:52:49;;;;;;;13.87;5.83;;;6.50;99.90;;;;;;5208625;28;20352;-73
2021/05/02 04:55:21;;;;;;;10.77;6.60;;;6.50;99.90;;;;;;5208018;28;20213;-70
2021/05/02 04:57:53;;;;;;;12.53;6.47;;;6.50;99.90;;;;;;5208264;28;20213;-71
2021/05/02 05:00:24;;;;;;;10.00;5.97;;;6.50;99.90;;;;;;5208227;28;20232;-69
2021/05/02 05:02:57;;;;;;;11.70;7.10;;;6.50;99.90;;;;;;5208398;28;20210;-72
2021/05/02 05:05:30;;;;;;;14.00;6.63;;;6.50;99.90;;;;;;5208341;28;20234;-66
2021/05/02 05:08:01;;;;;;;12.97;6.70;;;6.60;99.90;;;;;;5208372;28;20217;-74
2021/05/02 05:10:33;;;;;;;12.10;5.80;;;6.60;99.90;;;;;;5208275;28;20206;-74
2021/05/02 05:13:04;;;;;;;13.40;6.17;;;6.60;99.90;;;;;;5207921;28;20209;-75
2021/05/02 05:15:36;;;;;;;13.20;6.13;;;6.70;99.90;;;;;;5207735;28;20209;-72
2021/05/02 05:18:07;;;;;;;11.57;6.80;;;6.70;99.90;;;;;;5207875;28;20218;-72
2021/05/02 05:20:40;;;;;;;14.43;6.67;;;6.70;99.90;;;;;;5207497;28;20206;-71
2021/05/02 05:23:11;;;;;;;11.23;4.97;;;6.70;99.90;;;;;;5206997;28;20203;-75
2021/05/02 05:25:42;;;;;;;8.40;5.40;;;6.80;99.90;;;;;;5207692;28;20549;-70
2021/05/02 05:28:14;;;;;;;10.50;5.40;;;6.80;99.90;;;;;;5207684;28;20202;-75
2021/05/02 05:30:45;;;;;;;7.73;5.20;;;6.80;99.90;;;;;;5207244;28;20213;-71
2021/05/02 05:33:17;;;;;;;9.67;5.13;;;6.80;99.90;;;;;;5207677;28;20214;-73
2021/05/02 05:35:49;;;;;;;9.50;5.13;;;6.90;99.90;;;;;;5207405;28;20684;-76
2021/05/02 05:38:20;;;;;;;7.60;4.73;;;6.90;99.90;;;;;;5207402;28;20213;-69
2021/05/02 05:40:52;;;;;;;10.63;5.30;;;6.90;99.90;;;;;;5207039;28;20242;-71
2021/05/02 05:43:23;;;;;;;7.20;4.67;;;6.90;99.90;;;;;;5207089;28;20206;-73
2021/05/02 05:45:54;;;;;;;11.37;5.30;;;7.00;99.90;;;;;;5207275;28;20557;-75
2021/05/02 05:48:26;;;;;;;7.13;4.73;;;7.00;99.90;;;;;;5207259;28;20210;-70
2021/05/02 05:50:57;;;;;;;10.13;4.70;;;7.00;99.90;;;;;;5207109;28;20214;-71
2021/05/02 05:53:29;;;;;;;9.50;5.30;;;7.00;99.90;;;;;;5207008;28;20213;-69
2021/05/02 05:56:00;;;;;;;11.30;5.17;;;7.00;99.90;;;;;;5206972;28;20212;-72
2021/05/02 05:58:32;;;;;;;9.20;5.10;;;7.00;99.90;;;;;;5206120;28;20198;-74
2021/05/02 06:01:03;;;;;;;7.97;4.97;;;7.00;99.90;;;;;;5206449;28;20206;-71
2021/05/02 06:03:35;;;;;;;7.70;5.13;;;7.00;99.90;;;;;;5206696;28;20229;-72
2021/05/02 06:06:06;;;;;;;8.20;5.17;;;7.00;99.90;;;;;;5207004;28;20210;-72
2021/05/02 06:08:38;;;;;;;10.30;4.67;;;7.00;99.90;;;;;;5206770;28;20194;-68
2021/05/02 06:11:09;;;;;;;12.93;5.53;;;7.00;99.90;;;;;;5207353;28;20540;-69
2021/05/02 06:13:41;;;;;;;9.00;5.30;;;7.10;99.90;;;;;;5206817;28;20202;-72
2021/05/02 06:16:12;;;;;;;9.57;5.77;;;7.10;99.90;;;;;;5206853;28;20213;-74
2021/05/02 06:18:44;;;;;;;10.93;5.40;;;7.10;99.90;;;;;;5206584;28;20646;-70
2021/05/02 06:21:15;;;;;;;11.77;5.40;;;7.10;99.90;;;;;;5206772;28;20213;-73
2021/05/02 06:23:48;;;;;;;9.50;5.67;;;7.10;99.90;;;;;;5222326;28;20233;-73
2021/05/02 06:26:20;;;;;;;9.03;5.57;;;7.10;99.90;;;;;;5222190;28;20228;-69
2021/05/02 06:28:51;;;;;;;10.93;5.90;;;7.10;99.90;;;;;;5206909;28;20209;-68
2021/05/02 06:31:23;;;;;;;11.70;6.03;;;7.20;99.90;;;;;;5206580;28;20202;-76
2021/05/02 06:33:54;;;;;;;11.17;6.13;;;7.20;99.90;;;;;;5206373;28;20636;-74
2021/05/02 06:36:26;;;;;;;12.27;6.60;;;7.20;99.90;;;;;;5196986;28;20604;-76
2021/05/02 06:38:57;;;;;;;14.60;7.17;;;7.20;99.90;;;;;;5204765;28;20207;-73
2021/05/02 06:41:29;;;;;;;15.23;7.00;;;7.20;99.90;;;;;;5193460;28;20206;-71
2021/05/02 06:44:01;;;;;;;13.13;6.77;;;7.30;99.90;;;;;;5189672;28;20591;-69
2021/05/02 06:46:33;;;;;;;12.33;6.93;;;7.30;99.90;;;;;;5189777;28;20579;-72
2021/05/02 06:49:06;;;;;;;12.33;5.97;;;7.30;99.90;;;;;;5188489;28;20198;-72
2021/05/02 06:51:38;;;;;;;14.63;5.57;;;7.30;99.90;;;;;;5189057;28;20203;-72
2021/05/02 06:54:10;;;;;;;11.43;5.63;;;7.40;99.90;;;;;;5189503;28;20296;-71
2021/05/02 06:56:41;;;;;;;10.50;4.63;;;7.30;99.90;;;;;;5189699;28;20630;-71
2021/05/02 06:59:13;;;;;;;11.27;5.03;;;7.40;99.90;;;;;;5189303;28;20195;-70
2021/05/02 07:01:45;;;;;;;11.50;5.23;;;7.40;99.90;;;;;;5189189;28;20210;-68
2021/05/02 07:04:16;;;;;;;10.30;4.97;;;7.40;99.90;;;;;;5189647;28;20219;-70
2021/05/02 07:06:48;;;;;;;10.00;4.33;;;7.30;99.90;;;;;;5189233;28;20199;-69
2021/05/02 07:09:19;;;;;;;6.80;4.33;;;7.40;99.90;;;;;;5189330;28;20206;-71
2021/05/02 07:11:50;;;;;;;6.37;4.47;;;7.40;99.90;;;;;;5189034;28;20203;-69
2021/05/02 07:14:24;;;;;;;6.33;3.93;;;7.40;99.90;;;;;;5189236;28;20221;-70
2021/05/02 07:16:55;;;;;;;8.50;4.50;;;7.30;99.90;;;;;;5189314;28;20207;-70
2021/05/02 07:19:27;;;;;;;7.63;4.27;;;7.30;99.90;;;;;;5189180;28;20210;-70
2021/05/02 07:22:03;;;;;;;6.80;4.03;;;7.30;99.90;;;;;;5189004;28;20202;-69
2021/05/02 07:24:34;;;;;;;8.90;4.40;;;7.40;99.90;;;;;;5188904;28;20226;-71
2021/05/02 07:27:06;;;;;;;7.27;4.10;;;7.40;99.90;;;;;;5189215;28;20650;-72
2021/05/02 07:29:38;;;;;;;8.20;3.97;;;7.40;99.90;;;;;;5188739;28;20202;-67
2021/05/02 07:32:09;;;;;;;7.67;3.83;;;7.50;99.90;;;;;;5189049;28;20206;-67
2021/05/02 07:34:41;;;;;;;8.43;4.23;;;7.50;99.90;;;;;;5188623;28;20291;-67
2021/05/02 07:37:12;;;;;;;8.03;3.90;;;7.50;99.90;;;;;;5188805;28;20211;-66
2021/05/02 07:39:45;;;;;;;9.47;4.10;;;7.60;99.90;;;;;;5188865;28;20235;-67
2021/05/02 07:42:16;;;;;;;8.03;4.23;;;7.60;99.90;;;;;;5189079;28;20203;-67
2021/05/02 07:44:48;;;;;;;7.30;4.33;;;7.50;99.90;;;;;;5188457;28;20231;-68
2021/05/02 07:47:20;;;;;;;7.50;4.40;;;7.60;99.90;;;;;;5188109;28;20681;-66
2021/05/02 07:49:52;;;;;;;9.20;4.37;;;7.60;99.90;;;;;;5189122;28;20218;-66
2021/05/02 07:52:24;;;;;;;11.27;4.70;;;7.60;99.90;;;;;;5188535;28;20665;-66
2021/05/02 07:54:55;;;;;;;8.93;4.50;;;7.50;99.90;;;;;;5188507;28;20232;-68
2021/05/02 07:57:26;;;;;;;11.03;5.27;;;7.50;99.90;;;;;;5188150;28;20203;-67
2021/05/02 07:59:59;;;;;;;9.33;5.17;;;7.50;99.90;;;;;;5188005;28;20211;-68
2021/05/02 08:02:31;;;;;;;11.00;5.50;;;7.60;99.90;;;;;;5188025;28;20344;-67
2021/05/02 08:05:03;;;;;;;7.93;4.97;;;7.60;99.90;;;;;;5187943;28;20226;-66
2021/05/02 08:07:34;;;;;;;10.87;6.03;;;7.60;99.90;;;;;;5188114;28;20218;-67
2021/05/02 08:10:07;;;;;;;10.07;5.57;;;7.50;99.90;;;;;;5187864;28;20207;-67
2021/05/02 08:12:39;;;;;;;10.60;5.60;;;7.40;99.90;;;;;;5187956;28;20198;-69
2021/05/02 08:15:11;;;;;;;11.13;5.60;;;7.40;99.90;;;;;;5188101;28;20214;-68
2021/05/02 08:17:43;;;;;;;9.70;5.13;;;7.40;99.90;;;;;;5187652;28;20209;-68
2021/05/02 08:20:15;;;;;;;11.17;5.47;;;7.40;99.90;;;;;;5187785;28;20207;-69
2021/05/02 08:22:46;;;;;;;10.83;5.07;;;7.40;99.90;;;;;;5187693;28;20206;-68
2021/05/02 08:25:17;;;;;;;9.43;4.63;;;7.40;99.90;;;;;;5187981;28;20238;-67
2021/05/02 08:27:50;;;;;;;8.03;4.80;;;7.50;99.90;;;;;;5187837;28;20191;-70
2021/05/02 08:30:22;;;;;;;9.20;4.90;;;7.40;99.90;;;;;;5186529;28;20206;-70
2021/05/02 08:32:53;;;;;;;7.57;4.23;;;7.50;99.90;;;;;;5188392;28;20622;-67
2021/05/02 08:35:24;;;;;;;8.50;4.80;;;7.40;99.90;;;;;;5188364;28;20206;-67
2021/05/02 08:37:56;;;;;;;7.93;4.47;;;7.50;99.90;;;;;;5187636;28;20210;-67
2021/05/02 08:40:27;;;;;;;7.73;4.40;;;7.60;99.90;;;;;;5187476;28;20239;-67
2021/05/02 08:43:09;;;;;;;8.60;4.93;;;7.60;99.90;;;;;;5187802;28;20210;-68
2021/05/02 08:45:40;;;;;;;9.47;4.70;;;7.60;99.90;;;;;;5187311;28;20234;-69
2021/05/02 08:48:11;;;;;;;7.60;4.10;;;7.50;99.90;;;;;;5187432;28;20187;-69
2021/05/02 08:50:43;;;;;;;8.80;4.70;;;7.40;99.90;;;;;;5187214;28;20222;-69
2021/05/02 08:53:14;;;;;;;6.10;4.30;;;7.40;99.90;;;;;;5187158;28;20202;-69
2021/05/02 08:55:47;;;;;;;7.13;4.27;;;7.40;99.90;;;;;;5202365;28;20290;-68
2021/05/02 08:58:20;;;;;;;8.83;4.90;;;7.40;99.90;;;;;;5186383;28;20242;-68
2021/05/02 09:00:55;;;;;;;9.93;4.20;;;7.50;99.90;;;;;;5187062;28;20294;-68
2021/05/02 09:03:40;;;;;;;7.50;4.03;;;7.50;99.90;;;;;;5186190;28;20544;-68
2021/05/02 09:06:15;;;;;;;6.70;4.17;;;7.40;99.90;;;;;;5186826;28;20211;-67
2021/05/02 09:08:57;;;;;;;7.93;4.30;;;7.40;99.90;;;;;;5187032;28;20585;-68
2021/05/02 09:11:37;;;;;;;7.30;3.90;;;7.30;99.90;;;;;;5186956;28;20207;-68
2021/05/02 09:14:11;;;;;;;10.13;3.63;;;7.40;99.90;;;;;;5186784;28;20289;-68
2021/05/02 09:16:51;;;;;;;9.07;4.03;;;7.40;99.90;;;;;;5186990;28;20211;-68
2021/05/02 09:19:31;;;;;;;6.97;3.83;;;7.40;99.90;;;;;;5201914;28;20202;-69
2021/05/02 09:22:12;;;;;;;5.47;3.53;;;7.40;99.90;;;;;;5186857;28;20214;-68
2021/05/02 09:25:03;;;;;;;8.17;3.67;;;7.40;99.90;;;;;;5186726;28;20691;-68
2021/05/02 09:27:46;;;;;;;6.03;3.30;;;7.40;99.90;;;;;;5187057;28;20571;-69
2021/05/02 09:30:21;;;;;;;5.77;3.40;;;7.50;99.90;;;;;;5186825;28;20222;-69
2021/05/02 09:32:52;;;;;;;6.20;3.43;;;7.50;99.90;;;;;;5201697;28;20198;-68
2021/05/02 09:35:24;;;;;;;6.90;3.63;;;7.60;99.90;;;;;;5186622;28;20225;-68
2021/05/02 09:38:12;;;;;;;7.30;3.73;;;7.70;99.90;;;;;;5186590;28;20237;-67
2021/05/02 09:40:59;;;;;;;6.10;3.27;;;7.70;99.90;;;;;;5186307;28;20611;-68
2021/05/02 09:43:31;;;;;;;4.63;3.10;;;7.60;99.90;;;;;;5186309;28;20195;-68
2021/05/02 09:46:25;;;;;;;8.67;2.63;;;7.60;99.90;;;;;;5186110;28;20237;-68
2021/05/02 09:48:59;;;;;;;10.23;4.07;;;7.60;99.90;;;;;;5186179;28;20195;-68
2021/05/02 09:51:31;;;;;;;6.73;3.03;;;7.60;99.90;;;;;;5186067;28;20202;-70
2021/05/02 09:54:26;;;;;;;5.23;2.70;;;7.60;99.90;;;;;;5186564;28;20567;-69
2021/05/02 09:56:59;;;;;;;6.47;2.90;;;7.50;99.90;;;;;;5186194;28;20257;-71
2021/05/02 09:59:34;;;;;;;4.53;2.33;;;7.50;99.90;;;;;;5201481;28;20217;-69
2021/05/02 10:02:16;;;;;;;5.13;2.80;;;7.40;99.90;;;;;;5186037;28;20206;-69
2021/05/02 10:04:52;;;;;;;4.37;2.50;;;7.50;99.90;;;;;;5186185;28;20245;-68
2021/05/02 10:07:26;;;;;;;5.93;2.87;;;7.40;99.90;;;;;;5186080;28;20258;-69
2021/05/02 10:09:58;;;;;;;5.90;3.00;;;7.40;99.90;;;;;;5189902;28;20206;-68
2021/05/02 10:12:29;;;;;;;6.20;2.83;;;7.30;99.90;;;;;;5192823;28;20499;-69
2021/05/02 10:15:02;;;;;;;5.67;3.13;;;7.30;99.90;;;;;;5208035;28;20207;-69
2021/05/02 10:17:34;;;;;;;5.33;3.13;;;7.20;99.90;;;;;;5193113;28;20572;-69
2021/05/02 10:20:09;;;;;;;9.70;3.47;;;7.10;99.90;;;;;;5193149;28;20681;-71
2021/05/02 10:22:41;;;;;;;3.60;2.73;;;7.10;99.90;;;;;;5193108;28;20687;-69
2021/05/02 10:25:13;;;;;;;4.23;2.97;;;7.10;99.90;;;;;;5192718;28;20226;-69
2021/05/02 10:27:51;;;;;;;5.23;2.87;;;7.00;99.90;;;;;;5192781;28;20199;-69
2021/05/02 10:30:32;;;;;;;7.93;3.40;;;7.00;99.90;;;;;;5192673;28;20210;-67
2021/05/02 10:33:14;;;;;;;7.47;2.77;;;7.00;99.90;;;;;;5193084;28;20209;-68
2021/05/02 10:35:55;;;;;;;6.33;3.07;;;7.00;99.90;;;;;;5192676;28;20206;-69
2021/05/02 10:38:45;;;;;;;5.53;2.80;;;6.90;99.90;;;;;;5192599;28;20532;-70
2021/05/02 10:41:37;;;;;;;5.83;3.23;;;6.90;99.90;;;;;;5192479;28;20202;-69
2021/05/02 10:44:11;;;;;;;5.90;3.30;;;6.80;99.90;;;;;;5192513;28;20301;-68
2021/05/02 10:46:57;;;;;;;5.33;3.00;;;6.80;99.90;;;;;;5192343;28;20572;-68
2021/05/02 10:49:28;;;;;;;6.63;2.90;;;6.80;99.90;;;;;;5192497;28;20195;-68
2021/05/02 10:52:29;;;;;;;5.73;2.90;;;6.90;99.90;;;;;;5192599;28;20198;-71
2021/05/02 10:55:09;;;;;;;7.57;2.80;;;6.80;99.90;;;;;;5192648;28;20530;-69
2021/05/02 10:57:41;;;;;;;6.60;3.17;;;6.70;99.90;;;;;;5192885;28;20557;-70
2021/05/02 11:00:13;;;;;;;5.93;2.87;;;6.60;99.90;;;;;;5192749;28;20195;-70
2021/05/02 11:02:47;;;;;;;5.53;3.00;;;6.60;99.90;;;;;;5192305;28;20199;-71
2021/05/02 11:05:18;;;;;;;5.63;3.20;;;6.60;99.90;;;;;;5192352;28;20804;-69
2021/05/02 11:07:56;;;;;;;6.30;3.83;;;6.40;99.90;;;;;;5192236;28;20199;-67
2021/05/02 11:10:51;;;;;;;8.93;3.93;;;6.40;99.90;;;;;;5192651;28;20190;-68
2021/05/02 11:13:26;;;;;;;7.67;3.57;;;6.30;99.90;;;;;;5192326;28;20605;-70
2021/05/02 11:16:21;;;;;;;5.43;3.97;;;6.20;99.90;;;;;;5190692;28;20217;-68
2021/05/02 11:18:53;;;;;;;5.50;3.43;;;6.20;99.90;;;;;;5192221;28;20203;-67
2021/05/02 11:21:25;;;;;;;8.57;4.37;;;6.00;99.90;;;;;;5189513;28;20297;-67
2021/05/02 11:23:58;;;;;;;5.13;3.50;;;6.00;99.90;;;;;;5189027;28;20202;-68
2021/05/02 11:27:08;;;;;;;6.37;3.63;;;5.90;99.90;;;;;;5188760;28;20228;-68
2021/05/02 11:32:30;;;;;;;6.47;3.50;;;5.80;99.90;;;;;;5189220;28;20202;-68
2021/05/02 11:35:12;;;;;;;11.40;4.33;;;5.70;99.90;;;;;;5188634;28;20277;-69
2021/05/02 11:37:54;;;;;;;9.27;5.03;;;5.70;99.90;;;;;;5187789;28;20207;-69
2021/05/02 11:40:28;;;;;;;6.00;3.63;;;5.70;99.90;;;;;;5188692;28;20230;-70
2021/05/02 11:43:05;;;;;;;10.10;4.97;;;5.60;99.90;;;;;;5188850;28;20210;-68
2021/05/02 11:45:44;;;;;;;6.37;4.40;;;5.60;99.90;;;;;;5188418;28;20230;-67
2021/05/02 11:48:33;;;;;;;7.50;4.17;;;5.50;99.90;;;;;;5188488;28;20202;-68
2021/05/02 11:51:06;;;;;;;6.07;4.17;;;5.50;99.90;;;;;;5188732;28;20549;-69
2021/05/02 11:53:47;;;;;;;7.13;4.20;;;5.50;99.90;;;;;;5188688;28;20195;-68
2021/05/02 11:56:35;;;;;;;7.87;4.37;;;5.40;99.90;;;;;;5189119;28;20553;-68
2021/05/02 11:59:09;;;;;;;7.93;4.57;;;5.50;99.90;;;;;;5188857;28;20195;-68
2021/05/02 12:01:45;;;;;;;6.73;4.63;;;5.50;99.90;;;;;;5188467;28;20257;-69
2021/05/02 12:04:19;;;;;;;6.30;3.93;;;5.50;99.90;;;;;;5188293;28;20306;-68
2021/05/02 12:06:56;;;;;;;7.30;4.40;;;5.40;99.90;;;;;;5188404;28;20214;-68
2021/05/02 12:09:31;;;;;;;6.20;3.77;;;5.40;99.90;;;;;;5188077;28;20242;-68
2021/05/02 12:12:04;;;;;;;10.63;4.60;;;5.30;99.90;;;;;;5188530;28;20199;-68
2021/05/02 12:14:36;;;;;;;8.83;4.17;;;5.30;99.90;;;;;;5188517;28;20574;-69
2021/05/02 12:17:08;;;;;;;6.97;4.37;;;5.20;99.90;;;;;;5188438;28;20211;-69
2021/05/02 12:19:53;;;;;;;9.37;4.57;;;5.10;99.90;;;;;;5188732;28;20708;-68
2021/05/02 12:22:24;;;;;;;7.23;3.90;;;5.10;99.90;;;;;;5188324;28;20536;-69
2021/05/02 12:24:56;;;;;;;6.63;4.20;;;5.00;99.90;;;;;;5188227;28;20357;-69
2021/05/02 12:27:28;;;;;;;6.80;3.50;;;5.10;99.90;;;;;;5187993;28;20202;-67
2021/05/02 12:29:59;;;;;;;8.23;4.17;;;5.00;99.90;;;;;;5187652;28;20211;-68
2021/05/02 12:32:31;;;;;;;6.40;4.33;;;5.00;99.90;;;;;;5187640;28;20191;-71
2021/05/02 12:35:03;;;;;;;7.37;4.10;;;4.90;99.90;;;;;;5188293;28;20309;-68
2021/05/02 12:37:34;;;;;;;7.33;4.13;;;4.90;99.90;;;;;;5188457;28;20206;-69
2021/05/02 12:40:06;;;;;;;7.57;4.30;;;4.90;99.90;;;;;;5187937;28;20243;-69
2021/05/02 12:42:40;;;;;;;7.40;4.07;;;4.90;99.90;;;;;;5188051;28;20213;-69
2021/05/02 12:45:12;;;;;;;6.13;4.20;;;4.90;99.90;;;;;;5188017;28;20226;-69
2021/05/02 12:47:49;;;;;;;10.20;3.97;;;4.90;99.90;;;;;;5188103;28;20199;-69
2021/05/02 12:50:23;;;;;;;6.70;4.37;;;4.80;99.90;;;;;;5187631;28;20215;-68
2021/05/02 12:52:55;;;;;;;9.27;4.60;;;4.80;99.90;;;;;;5188030;28;20667;-69
2021/05/02 12:55:29;;;;;;;6.47;4.10;;;4.80;99.90;;;;;;5203297;28;20215;-69
2021/05/02 12:58:04;;;;;;;6.67;4.63;;;4.80;99.90;;;;;;5187998;28;20191;-67
2021/05/02 13:00:51;;;;;;;9.57;4.53;;;4.80;99.90;;;;;;5187786;28;20203;-68
2021/05/02 13:03:35;;;;;;;10.67;4.80;;;4.80;99.90;;;;;;5187678;28;20205;-67
2021/05/02 13:06:09;;;;;;;7.27;4.53;;;4.70;99.90;;;;;;5187602;28;20255;-68
2021/05/02 13:08:54;;;;;;;8.87;4.60;;;4.70;99.90;;;;;;5187616;28;20195;-69
2021/05/02 13:11:27;;;;;;;10.57;4.53;;;4.70;99.90;;;;;;5187185;28;20634;-69
2021/05/02 13:14:21;;;;;;;9.63;4.37;;;4.70;99.90;;;;;;5202918;28;20638;-69
2021/05/02 13:16:54;;;;;;;7.00;4.40;;;4.70;99.90;;;;;;5186784;28;20206;-66
2021/05/02 13:19:40;;;;;;;9.67;4.27;;;4.60;99.90;;;;;;5187199;28;20653;-70
2021/05/02 13:22:24;;;;;;;6.70;4.30;;;4.60;99.90;;;;;;5187118;28;20241;-68
2021/05/02 13:25:01;;;;;;;9.97;4.60;;;4.60;99.90;;;;;;5186811;28;20258;-70
2021/05/02 13:27:47;;;;;;;8.47;5.00;;;4.50;99.90;;;;;;5186779;28;20301;-69
2021/05/02 13:30:28;;;;;;;8.83;4.57;;;4.50;99.90;;;;;;5186562;28;20567;-69
2021/05/02 13:33:00;;;;;;;8.17;4.30;;;4.50;99.90;;;;;;5187068;28;20203;-68
2021/05/02 13:35:43;;;;;;;9.50;4.83;;;4.40;99.90;;;;;;5201840;28;20285;-68
2021/05/02 13:38:18;;;;;;;8.73;5.03;;;4.40;99.90;;;;;;5186473;28;20195;-69